sensor_id;sensor_type;location;lat;lon;timestamp;P1;durP1;ratioP1;P2;durP2;ratioP2
78844;SDS011;68195;50.854;2.860;2023-03-01T00:01:44;8.43;;;5.97;;
78844;SDS011;68195;50.854;2.860;2023-03-01T00:04:09;10.48;;;6.60;;
78844;SDS011;68195;50.854;2.860;2023-03-01T00:06:34;8.40;;;6.00;;
78844;SDS011;68195;50.854;2.860;2023-03-01T00:09:00;7.75;;;5.22;;
78844;SDS011;68195;50.854;2.860;2023-03-01T00:11:29;10.45;;;5.80;;
78844;SDS011;68195;50.854;2.860;2023-03-01T00:13:57;8.18;;;5.90;;
78844;SDS011;68195;50.854;2.860;2023-03-01T00:18:49;9.13;;;5.47;;
78844;SDS011;68195;50.854;2.860;2023-03-01T00:21:15;8.68;;;5.35;;
78844;SDS011;68195;50.854;2.860;2023-03-01T00:23:44;9.25;;;5.75;;
78844;SDS011;68195;50.854;2.860;2023-03-01T00:26:11;8.73;;;6.25;;
78844;SDS011;68195;50.854;2.860;2023-03-01T00:28:38;11.45;;;5.32;;
78844;SDS011;68195;50.854;2.860;2023-03-01T00:31:07;9.50;;;6.00;;
78844;SDS011;68195;50.854;2.860;2023-03-01T00:33:34;10.30;;;6.53;;
78844;SDS011;68195;50.854;2.860;2023-03-01T00:36:00;8.63;;;5.05;;
78844;SDS011;68195;50.854;2.860;2023-03-01T00:38:28;9.23;;;5.85;;
78844;SDS011;68195;50.854;2.860;2023-03-01T00:40:54;9.05;;;5.82;;
78844;SDS011;68195;50.854;2.860;2023-03-01T00:43:23;7.50;;;5.60;;
78844;SDS011;68195;50.854;2.860;2023-03-01T00:45:53;6.65;;;4.85;;
78844;SDS011;68195;50.854;2.860;2023-03-01T00:48:18;8.43;;;4.97;;
78844;SDS011;68195;50.854;2.860;2023-03-01T00:50:45;8.43;;;4.63;;
78844;SDS011;68195;50.854;2.860;2023-03-01T00:53:15;5.53;;;4.72;;
78844;SDS011;68195;50.854;2.860;2023-03-01T00:55:43;6.15;;;5.20;;
78844;SDS011;68195;50.854;2.860;2023-03-01T00:58:08;8.20;;;5.97;;
78844;SDS011;68195;50.854;2.860;2023-03-01T01:00:37;6.82;;;5.05;;
78844;SDS011;68195;50.854;2.860;2023-03-01T01:03:02;10.50;;;5.38;;
78844;SDS011;68195;50.854;2.860;2023-03-01T01:05:30;7.88;;;5.38;;
78844;SDS011;68195;50.854;2.860;2023-03-01T01:08:01;8.40;;;5.60;;
78844;SDS011;68195;50.854;2.860;2023-03-01T01:10:33;8.60;;;4.70;;
78844;SDS011;68195;50.854;2.860;2023-03-01T01:13:01;8.32;;;4.93;;
78844;SDS011;68195;50.854;2.860;2023-03-01T01:15:31;7.13;;;4.95;;
78844;SDS011;68195;50.854;2.860;2023-03-01T01:17:58;8.07;;;4.95;;
78844;SDS011;68195;50.854;2.860;2023-03-01T01:20:23;7.05;;;4.85;;
78844;SDS011;68195;50.854;2.860;2023-03-01T01:22:49;8.30;;;5.93;;
78844;SDS011;68195;50.854;2.860;2023-03-01T01:25:17;6.82;;;4.70;;
78844;SDS011;68195;50.854;2.860;2023-03-01T01:27:45;6.93;;;4.35;;
78844;SDS011;68195;50.854;2.860;2023-03-01T01:30:13;7.47;;;4.95;;
78844;SDS011;68195;50.854;2.860;2023-03-01T01:32:38;7.28;;;5.47;;
78844;SDS011;68195;50.854;2.860;2023-03-01T01:35:04;7.75;;;5.40;;
78844;SDS011;68195;50.854;2.860;2023-03-01T01:37:30;7.75;;;5.45;;
78844;SDS011;68195;50.854;2.860;2023-03-01T01:39:59;7.53;;;5.20;;
78844;SDS011;68195;50.854;2.860;2023-03-01T01:42:31;8.30;;;4.65;;
78844;SDS011;68195;50.854;2.860;2023-03-01T01:45:24;7.82;;;4.97;;
78844;SDS011;68195;50.854;2.860;2023-03-01T01:47:54;7.78;;;4.93;;
78844;SDS011;68195;50.854;2.860;2023-03-01T01:50:22;8.57;;;5.47;;
78844;SDS011;68195;50.854;2.860;2023-03-01T01:52:48;9.88;;;5.75;;
78844;SDS011;68195;50.854;2.860;2023-03-01T01:55:19;10.68;;;6.32;;
78844;SDS011;68195;50.854;2.860;2023-03-01T01:57:51;8.10;;;5.75;;
78844;SDS011;68195;50.854;2.860;2023-03-01T02:00:20;9.68;;;6.10;;
78844;SDS011;68195;50.854;2.860;2023-03-01T02:03:11;11.70;;;6.13;;
78844;SDS011;68195;50.854;2.860;2023-03-01T02:05:47;9.20;;;5.13;;
78844;SDS011;68195;50.854;2.860;2023-03-01T02:08:29;7.82;;;5.75;;
78844;SDS011;68195;50.854;2.860;2023-03-01T02:10:57;8.18;;;5.88;;
78844;SDS011;68195;50.854;2.860;2023-03-01T02:13:24;9.77;;;5.55;;
78844;SDS011;68195;50.854;2.860;2023-03-01T02:15:50;9.77;;;6.13;;
78844;SDS011;68195;50.854;2.860;2023-03-01T02:18:17;10.48;;;6.40;;
78844;SDS011;68195;50.854;2.860;2023-03-01T02:23:19;8.27;;;5.80;;
78844;SDS011;68195;50.854;2.860;2023-03-01T02:26:46;10.05;;;6.40;;
78844;SDS011;68195;50.854;2.860;2023-03-01T02:28:52;10.15;;;6.85;;
78844;SDS011;68195;50.854;2.860;2023-03-01T02:31:18;12.68;;;7.72;;
78844;SDS011;68195;50.854;2.860;2023-03-01T02:34:03;8.55;;;5.65;;
78844;SDS011;68195;50.854;2.860;2023-03-01T02:36:35;9.73;;;7.07;;
78844;SDS011;68195;50.854;2.860;2023-03-01T02:39:03;10.63;;;7.88;;
78844;SDS011;68195;50.854;2.860;2023-03-01T02:41:32;10.10;;;7.10;;
78844;SDS011;68195;50.854;2.860;2023-03-01T02:44:01;14.63;;;8.52;;
78844;SDS011;68195;50.854;2.860;2023-03-01T02:46:27;11.80;;;7.80;;
78844;SDS011;68195;50.854;2.860;2023-03-01T02:48:53;10.63;;;7.80;;
78844;SDS011;68195;50.854;2.860;2023-03-01T02:52:06;11.30;;;8.20;;
78844;SDS011;68195;50.854;2.860;2023-03-01T02:54:46;12.52;;;7.47;;
78844;SDS011;68195;50.854;2.860;2023-03-01T02:57:11;10.40;;;8.07;;
78844;SDS011;68195;50.854;2.860;2023-03-01T02:59:40;11.82;;;8.38;;
78844;SDS011;68195;50.854;2.860;2023-03-01T03:02:08;9.77;;;7.38;;
78844;SDS011;68195;50.854;2.860;2023-03-01T03:04:45;14.45;;;8.95;;
78844;SDS011;68195;50.854;2.860;2023-03-01T03:07:11;13.52;;;9.57;;
78844;SDS011;68195;50.854;2.860;2023-03-01T03:09:39;13.35;;;8.85;;
78844;SDS011;68195;50.854;2.860;2023-03-01T03:12:04;11.20;;;9.77;;
78844;SDS011;68195;50.854;2.860;2023-03-01T03:14:30;13.40;;;9.50;;
78844;SDS011;68195;50.854;2.860;2023-03-01T03:16:59;12.77;;;9.35;;
78844;SDS011;68195;50.854;2.860;2023-03-01T03:19:25;13.25;;;9.10;;
78844;SDS011;68195;50.854;2.860;2023-03-01T03:21:50;13.57;;;9.57;;
78844;SDS011;68195;50.854;2.860;2023-03-01T03:24:20;14.00;;;9.50;;
78844;SDS011;68195;50.854;2.860;2023-03-01T03:26:51;13.45;;;9.23;;
78844;SDS011;68195;50.854;2.860;2023-03-01T03:29:16;14.82;;;9.18;;
78844;SDS011;68195;50.854;2.860;2023-03-01T03:31:46;12.60;;;9.15;;
78844;SDS011;68195;50.854;2.860;2023-03-01T03:34:16;12.23;;;8.93;;
78844;SDS011;68195;50.854;2.860;2023-03-01T03:36:42;12.80;;;9.85;;
78844;SDS011;68195;50.854;2.860;2023-03-01T03:39:13;13.82;;;10.52;;
78844;SDS011;68195;50.854;2.860;2023-03-01T03:41:38;17.73;;;10.68;;
78844;SDS011;68195;50.854;2.860;2023-03-01T03:44:03;13.02;;;9.75;;
78844;SDS011;68195;50.854;2.860;2023-03-01T03:46:31;14.68;;;9.88;;
78844;SDS011;68195;50.854;2.860;2023-03-01T03:48:57;12.45;;;9.23;;
78844;SDS011;68195;50.854;2.860;2023-03-01T03:51:28;14.38;;;9.35;;
78844;SDS011;68195;50.854;2.860;2023-03-01T03:53:56;12.40;;;8.93;;
78844;SDS011;68195;50.854;2.860;2023-03-01T03:56:21;13.80;;;10.35;;
78844;SDS011;68195;50.854;2.860;2023-03-01T03:58:51;14.65;;;9.68;;
78844;SDS011;68195;50.854;2.860;2023-03-01T04:01:17;15.57;;;10.10;;
78844;SDS011;68195;50.854;2.860;2023-03-01T04:03:45;14.25;;;9.43;;
78844;SDS011;68195;50.854;2.860;2023-03-01T04:06:11;13.55;;;9.68;;
78844;SDS011;68195;50.854;2.860;2023-03-01T04:08:37;15.10;;;10.43;;
78844;SDS011;68195;50.854;2.860;2023-03-01T04:11:03;13.75;;;10.43;;
78844;SDS011;68195;50.854;2.860;2023-03-01T04:13:48;13.45;;;10.60;;
78844;SDS011;68195;50.854;2.860;2023-03-01T04:16:14;14.00;;;10.23;;
78844;SDS011;68195;50.854;2.860;2023-03-01T04:18:39;15.60;;;10.20;;
78844;SDS011;68195;50.854;2.860;2023-03-01T04:21:05;16.77;;;10.32;;
78844;SDS011;68195;50.854;2.860;2023-03-01T04:23:36;13.93;;;10.55;;
78844;SDS011;68195;50.854;2.860;2023-03-01T04:26:01;14.05;;;10.20;;
78844;SDS011;68195;50.854;2.860;2023-03-01T04:28:33;19.17;;;11.40;;
78844;SDS011;68195;50.854;2.860;2023-03-01T04:31:05;14.90;;;10.88;;
78844;SDS011;68195;50.854;2.860;2023-03-01T04:33:41;13.15;;;10.45;;
78844;SDS011;68195;50.854;2.860;2023-03-01T04:36:09;14.00;;;10.45;;
78844;SDS011;68195;50.854;2.860;2023-03-01T04:38:38;14.27;;;9.68;;
78844;SDS011;68195;50.854;2.860;2023-03-01T04:41:05;15.02;;;10.32;;
78844;SDS011;68195;50.854;2.860;2023-03-01T04:43:33;13.88;;;10.18;;
78844;SDS011;68195;50.854;2.860;2023-03-01T04:46:04;15.73;;;10.15;;
78844;SDS011;68195;50.854;2.860;2023-03-01T04:48:40;13.43;;;10.30;;
78844;SDS011;68195;50.854;2.860;2023-03-01T04:51:07;14.85;;;10.88;;
78844;SDS011;68195;50.854;2.860;2023-03-01T04:53:33;17.23;;;8.95;;
78844;SDS011;68195;50.854;2.860;2023-03-01T04:56:02;12.57;;;8.90;;
78844;SDS011;68195;50.854;2.860;2023-03-01T04:58:28;14.27;;;9.57;;
78844;SDS011;68195;50.854;2.860;2023-03-01T05:00:56;13.32;;;9.65;;
78844;SDS011;68195;50.854;2.860;2023-03-01T05:03:21;15.73;;;10.88;;
78844;SDS011;68195;50.854;2.860;2023-03-01T05:05:48;15.27;;;10.43;;
78844;SDS011;68195;50.854;2.860;2023-03-01T05:08:17;14.35;;;9.57;;
78844;SDS011;68195;50.854;2.860;2023-03-01T05:10:48;13.05;;;9.45;;
78844;SDS011;68195;50.854;2.860;2023-03-01T05:13:17;14.27;;;10.38;;
78844;SDS011;68195;50.854;2.860;2023-03-01T05:15:55;16.65;;;10.35;;
78844;SDS011;68195;50.854;2.860;2023-03-01T05:18:23;15.93;;;10.88;;
78844;SDS011;68195;50.854;2.860;2023-03-01T05:20:52;19.33;;;10.55;;
78844;SDS011;68195;50.854;2.860;2023-03-01T05:23:18;14.88;;;10.85;;
78844;SDS011;68195;50.854;2.860;2023-03-01T05:25:45;15.77;;;10.38;;
78844;SDS011;68195;50.854;2.860;2023-03-01T05:28:11;16.02;;;9.75;;
78844;SDS011;68195;50.854;2.860;2023-03-01T05:30:39;15.27;;;10.57;;
78844;SDS011;68195;50.854;2.860;2023-03-01T05:33:07;12.32;;;10.57;;
78844;SDS011;68195;50.854;2.860;2023-03-01T05:35:39;11.50;;;9.35;;
78844;SDS011;68195;50.854;2.860;2023-03-01T05:38:07;14.82;;;9.90;;
78844;SDS011;68195;50.854;2.860;2023-03-01T05:40:36;16.20;;;9.60;;
78844;SDS011;68195;50.854;2.860;2023-03-01T05:43:01;13.23;;;9.73;;
78844;SDS011;68195;50.854;2.860;2023-03-01T05:45:32;16.50;;;9.85;;
78844;SDS011;68195;50.854;2.860;2023-03-01T05:47:58;13.23;;;9.70;;
78844;SDS011;68195;50.854;2.860;2023-03-01T05:50:26;15.40;;;10.45;;
78844;SDS011;68195;50.854;2.860;2023-03-01T05:53:13;16.50;;;9.98;;
78844;SDS011;68195;50.854;2.860;2023-03-01T05:55:45;14.48;;;10.13;;
78844;SDS011;68195;50.854;2.860;2023-03-01T05:58:16;13.30;;;9.85;;
78844;SDS011;68195;50.854;2.860;2023-03-01T06:00:44;13.32;;;9.80;;
78844;SDS011;68195;50.854;2.860;2023-03-01T06:03:13;13.25;;;9.70;;
78844;SDS011;68195;50.854;2.860;2023-03-01T06:05:40;13.38;;;10.18;;
78844;SDS011;68195;50.854;2.860;2023-03-01T06:08:12;17.55;;;10.63;;
78844;SDS011;68195;50.854;2.860;2023-03-01T06:10:38;15.52;;;10.27;;
78844;SDS011;68195;50.854;2.860;2023-03-01T06:13:04;19.38;;;11.05;;
78844;SDS011;68195;50.854;2.860;2023-03-01T06:15:29;14.93;;;10.23;;
78844;SDS011;68195;50.854;2.860;2023-03-01T06:17:59;16.50;;;10.35;;
78844;SDS011;68195;50.854;2.860;2023-03-01T06:20:27;18.42;;;10.80;;
78844;SDS011;68195;50.854;2.860;2023-03-01T06:22:58;18.60;;;10.85;;
78844;SDS011;68195;50.854;2.860;2023-03-01T06:25:26;16.05;;;10.73;;
78844;SDS011;68195;50.854;2.860;2023-03-01T06:27:57;15.88;;;10.30;;
78844;SDS011;68195;50.854;2.860;2023-03-01T06:30:23;15.93;;;10.25;;
78844;SDS011;68195;50.854;2.860;2023-03-01T06:32:56;17.30;;;10.40;;
78844;SDS011;68195;50.854;2.860;2023-03-01T06:35:28;15.45;;;11.30;;
78844;SDS011;68195;50.854;2.860;2023-03-01T06:37:58;15.57;;;10.32;;
78844;SDS011;68195;50.854;2.860;2023-03-01T06:40:25;14.82;;;9.95;;
78844;SDS011;68195;50.854;2.860;2023-03-01T06:42:51;16.95;;;10.55;;
78844;SDS011;68195;50.854;2.860;2023-03-01T06:45:21;20.63;;;11.75;;
78844;SDS011;68195;50.854;2.860;2023-03-01T06:47:46;17.73;;;10.75;;
78844;SDS011;68195;50.854;2.860;2023-03-01T06:50:12;18.15;;;10.57;;
78844;SDS011;68195;50.854;2.860;2023-03-01T06:52:41;16.25;;;11.07;;
78844;SDS011;68195;50.854;2.860;2023-03-01T06:55:10;16.40;;;10.57;;
78844;SDS011;68195;50.854;2.860;2023-03-01T06:57:37;15.90;;;10.35;;
78844;SDS011;68195;50.854;2.860;2023-03-01T07:00:08;12.55;;;9.30;;
78844;SDS011;68195;50.854;2.860;2023-03-01T07:02:34;15.70;;;11.18;;
78844;SDS011;68195;50.854;2.860;2023-03-01T07:04:59;17.25;;;10.65;;
78844;SDS011;68195;50.854;2.860;2023-03-01T07:07:29;15.07;;;10.77;;
78844;SDS011;68195;50.854;2.860;2023-03-01T07:09:55;18.13;;;11.55;;
78844;SDS011;68195;50.854;2.860;2023-03-01T07:12:27;16.55;;;10.90;;
78844;SDS011;68195;50.854;2.860;2023-03-01T07:14:52;16.58;;;10.95;;
78844;SDS011;68195;50.854;2.860;2023-03-01T07:17:21;14.65;;;10.43;;
78844;SDS011;68195;50.854;2.860;2023-03-01T07:19:46;14.50;;;10.73;;
78844;SDS011;68195;50.854;2.860;2023-03-01T07:22:11;13.30;;;10.20;;
78844;SDS011;68195;50.854;2.860;2023-03-01T07:24:40;16.63;;;10.93;;
78844;SDS011;68195;50.854;2.860;2023-03-01T07:27:13;23.80;;;10.70;;
78844;SDS011;68195;50.854;2.860;2023-03-01T07:29:38;14.43;;;9.90;;
78844;SDS011;68195;50.854;2.860;2023-03-01T07:32:04;14.63;;;10.73;;
78844;SDS011;68195;50.854;2.860;2023-03-01T07:34:32;16.85;;;11.50;;
78844;SDS011;68195;50.854;2.860;2023-03-01T07:37:00;17.90;;;11.20;;
78844;SDS011;68195;50.854;2.860;2023-03-01T07:39:25;16.08;;;11.27;;
78844;SDS011;68195;50.854;2.860;2023-03-01T07:41:51;18.55;;;11.48;;
78844;SDS011;68195;50.854;2.860;2023-03-01T07:44:16;15.25;;;10.35;;
78844;SDS011;68195;50.854;2.860;2023-03-01T07:46:45;20.63;;;11.57;;
78844;SDS011;68195;50.854;2.860;2023-03-01T07:49:10;18.50;;;11.55;;
78844;SDS011;68195;50.854;2.860;2023-03-01T07:51:35;18.27;;;11.32;;
78844;SDS011;68195;50.854;2.860;2023-03-01T07:54:03;16.08;;;10.88;;
78844;SDS011;68195;50.854;2.860;2023-03-01T07:56:31;18.90;;;11.27;;
78844;SDS011;68195;50.854;2.860;2023-03-01T07:58:56;19.85;;;11.88;;
78844;SDS011;68195;50.854;2.860;2023-03-01T08:01:24;19.05;;;10.57;;
78844;SDS011;68195;50.854;2.860;2023-03-01T08:03:49;17.95;;;10.88;;
78844;SDS011;68195;50.854;2.860;2023-03-01T08:06:18;14.45;;;10.57;;
78844;SDS011;68195;50.854;2.860;2023-03-01T08:08:45;13.45;;;10.35;;
78844;SDS011;68195;50.854;2.860;2023-03-01T08:11:12;17.65;;;10.48;;
78844;SDS011;68195;50.854;2.860;2023-03-01T08:13:38;17.55;;;10.73;;
78844;SDS011;68195;50.854;2.860;2023-03-01T08:16:07;16.13;;;9.75;;
78844;SDS011;68195;50.854;2.860;2023-03-01T08:18:35;18.90;;;10.23;;
78844;SDS011;68195;50.854;2.860;2023-03-01T08:21:01;17.73;;;10.98;;
78844;SDS011;68195;50.854;2.860;2023-03-01T08:23:27;15.25;;;9.98;;
78844;SDS011;68195;50.854;2.860;2023-03-01T08:25:53;16.50;;;10.35;;
78844;SDS011;68195;50.854;2.860;2023-03-01T08:28:28;16.25;;;10.02;;
78844;SDS011;68195;50.854;2.860;2023-03-01T08:30:56;13.65;;;9.55;;
78844;SDS011;68195;50.854;2.860;2023-03-01T08:33:21;15.18;;;9.68;;
78844;SDS011;68195;50.854;2.860;2023-03-01T08:35:47;15.07;;;10.10;;
78844;SDS011;68195;50.854;2.860;2023-03-01T08:38:12;16.00;;;9.82;;
78844;SDS011;68195;50.854;2.860;2023-03-01T08:40:38;16.73;;;9.40;;
78844;SDS011;68195;50.854;2.860;2023-03-01T08:43:03;12.82;;;10.25;;
78844;SDS011;68195;50.854;2.860;2023-03-01T08:45:28;14.02;;;8.45;;
78844;SDS011;68195;50.854;2.860;2023-03-01T08:47:54;12.52;;;8.73;;
78844;SDS011;68195;50.854;2.860;2023-03-01T08:50:19;10.75;;;7.70;;
78844;SDS011;68195;50.854;2.860;2023-03-01T08:52:45;14.05;;;9.52;;
78844;SDS011;68195;50.854;2.860;2023-03-01T08:55:10;12.32;;;8.68;;
78844;SDS011;68195;50.854;2.860;2023-03-01T08:57:35;12.13;;;8.38;;
78844;SDS011;68195;50.854;2.860;2023-03-01T09:00:03;11.25;;;6.88;;
78844;SDS011;68195;50.854;2.860;2023-03-01T09:02:33;13.65;;;8.52;;
78844;SDS011;68195;50.854;2.860;2023-03-01T09:04:59;11.70;;;7.70;;
78844;SDS011;68195;50.854;2.860;2023-03-01T09:07:25;13.18;;;7.50;;
78844;SDS011;68195;50.854;2.860;2023-03-01T09:09:53;15.52;;;9.05;;
78844;SDS011;68195;50.854;2.860;2023-03-01T09:12:21;12.10;;;8.15;;
78844;SDS011;68195;50.854;2.860;2023-03-01T09:14:52;11.05;;;6.95;;
78844;SDS011;68195;50.854;2.860;2023-03-01T09:17:22;13.30;;;8.07;;
78844;SDS011;68195;50.854;2.860;2023-03-01T09:19:51;11.30;;;6.75;;
78844;SDS011;68195;50.854;2.860;2023-03-01T09:22:17;9.60;;;7.05;;
78844;SDS011;68195;50.854;2.860;2023-03-01T09:24:44;9.63;;;7.05;;
78844;SDS011;68195;50.854;2.860;2023-03-01T09:27:10;9.07;;;5.80;;
78844;SDS011;68195;50.854;2.860;2023-03-01T09:29:36;9.05;;;6.43;;
78844;SDS011;68195;50.854;2.860;2023-03-01T09:32:02;9.73;;;6.18;;
78844;SDS011;68195;50.854;2.860;2023-03-01T09:34:27;9.70;;;6.28;;
78844;SDS011;68195;50.854;2.860;2023-03-01T09:36:56;9.75;;;5.82;;
78844;SDS011;68195;50.854;2.860;2023-03-01T09:39:24;9.10;;;5.60;;
78844;SDS011;68195;50.854;2.860;2023-03-01T09:42:00;8.07;;;5.50;;
78844;SDS011;68195;50.854;2.860;2023-03-01T09:47:23;7.95;;;4.65;;
78844;SDS011;68195;50.854;2.860;2023-03-01T09:50:12;7.30;;;5.30;;
78844;SDS011;68195;50.854;2.860;2023-03-01T09:55:16;8.20;;;4.60;;
78844;SDS011;68195;50.854;2.860;2023-03-01T09:57:48;6.55;;;4.78;;
78844;SDS011;68195;50.854;2.860;2023-03-01T10:00:23;9.32;;;4.40;;
78844;SDS011;68195;50.854;2.860;2023-03-01T10:05:59;5.50;;;3.90;;
78844;SDS011;68195;50.854;2.860;2023-03-01T10:08:35;4.45;;;3.50;;
78844;SDS011;68195;50.854;2.860;2023-03-01T10:11:22;8.82;;;4.70;;
78844;SDS011;68195;50.854;2.860;2023-03-01T10:14:03;6.35;;;3.95;;
78844;SDS011;68195;50.854;2.860;2023-03-01T10:20:05;5.10;;;3.85;;
78844;SDS011;68195;50.854;2.860;2023-03-01T10:22:15;7.32;;;4.30;;
78844;SDS011;68195;50.854;2.860;2023-03-01T10:24:48;8.30;;;3.75;;
78844;SDS011;68195;50.854;2.860;2023-03-01T10:32:13;5.07;;;3.80;;
78844;SDS011;68195;50.854;2.860;2023-03-01T10:34:38;5.72;;;3.63;;
78844;SDS011;68195;50.854;2.860;2023-03-01T10:37:14;4.95;;;3.42;;
78844;SDS011;68195;50.854;2.860;2023-03-01T10:40:00;5.35;;;3.53;;
78844;SDS011;68195;50.854;2.860;2023-03-01T10:42:54;4.30;;;2.90;;
78844;SDS011;68195;50.854;2.860;2023-03-01T10:50:29;5.63;;;3.47;;
78844;SDS011;68195;50.854;2.860;2023-03-01T10:53:01;5.90;;;3.65;;
78844;SDS011;68195;50.854;2.860;2023-03-01T10:55:40;4.90;;;2.88;;
78844;SDS011;68195;50.854;2.860;2023-03-01T11:00:47;5.32;;;3.20;;
78844;SDS011;68195;50.854;2.860;2023-03-01T11:03:19;5.68;;;3.53;;
78844;SDS011;68195;50.854;2.860;2023-03-01T11:08:46;4.13;;;2.85;;
78844;SDS011;68195;50.854;2.860;2023-03-01T11:11:31;6.32;;;3.70;;
78844;SDS011;68195;50.854;2.860;2023-03-01T11:13:59;5.75;;;3.92;;
78844;SDS011;68195;50.854;2.860;2023-03-01T11:16:38;7.70;;;4.30;;
78844;SDS011;68195;50.854;2.860;2023-03-01T11:21:35;6.30;;;3.53;;
78844;SDS011;68195;50.854;2.860;2023-03-01T11:24:04;5.75;;;3.47;;
78844;SDS011;68195;50.854;2.860;2023-03-01T11:26:34;8.43;;;4.35;;
78844;SDS011;68195;50.854;2.860;2023-03-01T11:31:37;5.38;;;3.08;;
78844;SDS011;68195;50.854;2.860;2023-03-01T11:34:12;4.95;;;3.30;;
78844;SDS011;68195;50.854;2.860;2023-03-01T11:36:44;6.60;;;3.55;;
78844;SDS011;68195;50.854;2.860;2023-03-01T11:39:20;3.95;;;2.90;;
78844;SDS011;68195;50.854;2.860;2023-03-01T11:41:52;5.03;;;2.78;;
78844;SDS011;68195;50.854;2.860;2023-03-01T11:44:29;5.38;;;3.15;;
78844;SDS011;68195;50.854;2.860;2023-03-01T11:50:12;5.15;;;2.88;;
78844;SDS011;68195;50.854;2.860;2023-03-01T12:07:44;5.00;;;3.53;;
78844;SDS011;68195;50.854;2.860;2023-03-01T12:10:32;5.93;;;3.55;;
78844;SDS011;68195;50.854;2.860;2023-03-01T12:15:43;5.23;;;3.97;;
78844;SDS011;68195;50.854;2.860;2023-03-01T12:24:11;5.90;;;2.75;;
78844;SDS011;68195;50.854;2.860;2023-03-01T12:27:47;6.97;;;3.38;;
78844;SDS011;68195;50.854;2.860;2023-03-01T12:49:21;5.93;;;3.67;;
78844;SDS011;68195;50.854;2.860;2023-03-01T12:51:58;5.60;;;3.47;;
78844;SDS011;68195;50.854;2.860;2023-03-01T12:54:28;4.68;;;3.28;;
78844;SDS011;68195;50.854;2.860;2023-03-01T12:56:57;7.40;;;3.50;;
78844;SDS011;68195;50.854;2.860;2023-03-01T13:08:19;5.43;;;3.55;;
78844;SDS011;68195;50.854;2.860;2023-03-01T13:10:52;4.30;;;2.97;;
78844;SDS011;68195;50.854;2.860;2023-03-01T13:13:24;5.30;;;2.75;;
78844;SDS011;68195;50.854;2.860;2023-03-01T13:15:55;5.82;;;3.50;;
78844;SDS011;68195;50.854;2.860;2023-03-01T13:20:56;5.22;;;3.55;;
78844;SDS011;68195;50.854;2.860;2023-03-01T13:23:28;6.13;;;3.35;;
78844;SDS011;68195;50.854;2.860;2023-03-01T13:31:02;6.97;;;3.17;;
78844;SDS011;68195;50.854;2.860;2023-03-01T13:35:59;6.93;;;3.80;;
78844;SDS011;68195;50.854;2.860;2023-03-01T13:38:37;5.53;;;3.10;;
78844;SDS011;68195;50.854;2.860;2023-03-01T13:41:03;4.70;;;3.05;;
78844;SDS011;68195;50.854;2.860;2023-03-01T13:43:33;7.38;;;3.78;;
78844;SDS011;68195;50.854;2.860;2023-03-01T13:46:02;7.32;;;3.78;;
78844;SDS011;68195;50.854;2.860;2023-03-01T13:48:35;4.50;;;3.30;;
78844;SDS011;68195;50.854;2.860;2023-03-01T13:51:05;7.13;;;4.28;;
78844;SDS011;68195;50.854;2.860;2023-03-01T13:53:37;5.15;;;3.80;;
78844;SDS011;68195;50.854;2.860;2023-03-01T13:56:09;5.18;;;3.50;;
78844;SDS011;68195;50.854;2.860;2023-03-01T13:58:48;6.10;;;3.95;;
78844;SDS011;68195;50.854;2.860;2023-03-01T14:03:52;6.25;;;3.45;;
78844;SDS011;68195;50.854;2.860;2023-03-01T14:06:23;7.65;;;3.80;;
78844;SDS011;68195;50.854;2.860;2023-03-01T14:09:28;5.05;;;3.67;;
78844;SDS011;68195;50.854;2.860;2023-03-01T14:17:34;6.53;;;4.10;;
78844;SDS011;68195;50.854;2.860;2023-03-01T14:20:11;5.95;;;3.83;;
78844;SDS011;68195;50.854;2.860;2023-03-01T14:22:42;8.90;;;4.45;;
78844;SDS011;68195;50.854;2.860;2023-03-01T14:27:46;5.78;;;4.18;;
78844;SDS011;68195;50.854;2.860;2023-03-01T14:30:19;5.80;;;4.10;;
78844;SDS011;68195;50.854;2.860;2023-03-01T14:32:55;7.63;;;4.47;;
78844;SDS011;68195;50.854;2.860;2023-03-01T14:35:31;5.38;;;4.07;;
78844;SDS011;68195;50.854;2.860;2023-03-01T14:37:58;7.03;;;4.43;;
78844;SDS011;68195;50.854;2.860;2023-03-01T14:42:55;8.13;;;5.03;;
78844;SDS011;68195;50.854;2.860;2023-03-01T14:45:23;5.75;;;3.95;;
78844;SDS011;68195;50.854;2.860;2023-03-01T14:47:56;6.90;;;3.90;;
78844;SDS011;68195;50.854;2.860;2023-03-01T14:52:57;5.53;;;3.60;;
78844;SDS011;68195;50.854;2.860;2023-03-01T14:55:37;8.35;;;4.22;;
78844;SDS011;68195;50.854;2.860;2023-03-01T14:58:10;6.03;;;4.20;;
78844;SDS011;68195;50.854;2.860;2023-03-01T15:00:39;6.03;;;4.15;;
78844;SDS011;68195;50.854;2.860;2023-03-01T15:03:42;5.38;;;4.60;;
78844;SDS011;68195;50.854;2.860;2023-03-01T15:06:11;4.97;;;4.10;;
78844;SDS011;68195;50.854;2.860;2023-03-01T15:08:50;7.55;;;4.38;;
78844;SDS011;68195;50.854;2.860;2023-03-01T15:11:22;6.78;;;3.97;;
78844;SDS011;68195;50.854;2.860;2023-03-01T15:13:49;7.35;;;4.38;;
78844;SDS011;68195;50.854;2.860;2023-03-01T15:16:38;6.63;;;4.43;;
78844;SDS011;68195;50.854;2.860;2023-03-01T15:19:06;7.22;;;4.13;;
78844;SDS011;68195;50.854;2.860;2023-03-01T15:21:33;7.68;;;4.35;;
78844;SDS011;68195;50.854;2.860;2023-03-01T15:26:43;8.70;;;3.85;;
78844;SDS011;68195;50.854;2.860;2023-03-01T15:29:15;7.10;;;4.47;;
78844;SDS011;68195;50.854;2.860;2023-03-01T15:31:43;6.60;;;4.18;;
78844;SDS011;68195;50.854;2.860;2023-03-01T15:39:41;6.50;;;4.53;;
78844;SDS011;68195;50.854;2.860;2023-03-01T15:45:07;5.75;;;3.72;;
78844;SDS011;68195;50.854;2.860;2023-03-01T15:47:40;7.55;;;4.32;;
78844;SDS011;68195;50.854;2.860;2023-03-01T15:50:32;7.82;;;5.10;;
78844;SDS011;68195;50.854;2.860;2023-03-01T15:53:00;6.88;;;4.18;;
78844;SDS011;68195;50.854;2.860;2023-03-01T15:55:29;9.70;;;4.50;;
78844;SDS011;68195;50.854;2.860;2023-03-01T15:58:18;6.32;;;4.25;;
78844;SDS011;68195;50.854;2.860;2023-03-01T16:00:48;6.82;;;4.03;;
78844;SDS011;68195;50.854;2.860;2023-03-01T16:03:19;5.05;;;4.00;;
78844;SDS011;68195;50.854;2.860;2023-03-01T16:05:47;6.03;;;4.40;;
78844;SDS011;68195;50.854;2.860;2023-03-01T16:08:13;6.75;;;4.28;;
78844;SDS011;68195;50.854;2.860;2023-03-01T16:10:41;8.60;;;3.72;;
78844;SDS011;68195;50.854;2.860;2023-03-01T16:13:12;5.40;;;3.20;;
78844;SDS011;68195;50.854;2.860;2023-03-01T16:15:38;6.28;;;3.90;;
78844;SDS011;68195;50.854;2.860;2023-03-01T16:20:31;4.53;;;2.90;;
78844;SDS011;68195;50.854;2.860;2023-03-01T16:22:57;5.57;;;3.17;;
78844;SDS011;68195;50.854;2.860;2023-03-01T16:25:25;4.97;;;3.45;;
78844;SDS011;68195;50.854;2.860;2023-03-01T16:27:52;6.38;;;4.15;;
78844;SDS011;68195;50.854;2.860;2023-03-01T16:30:20;5.38;;;3.97;;
78844;SDS011;68195;50.854;2.860;2023-03-01T16:32:49;6.13;;;3.72;;
78844;SDS011;68195;50.854;2.860;2023-03-01T16:35:17;5.25;;;3.67;;
78844;SDS011;68195;50.854;2.860;2023-03-01T16:37:44;5.47;;;4.65;;
78844;SDS011;68195;50.854;2.860;2023-03-01T16:42:50;5.35;;;3.97;;
78844;SDS011;68195;50.854;2.860;2023-03-01T16:45:16;7.47;;;5.30;;
78844;SDS011;68195;50.854;2.860;2023-03-01T16:47:42;8.27;;;5.13;;
78844;SDS011;68195;50.854;2.860;2023-03-01T16:50:08;8.80;;;4.00;;
78844;SDS011;68195;50.854;2.860;2023-03-01T16:52:36;5.22;;;4.25;;
78844;SDS011;68195;50.854;2.860;2023-03-01T16:55:02;5.00;;;3.25;;
78844;SDS011;68195;50.854;2.860;2023-03-01T16:57:29;6.05;;;4.15;;
78844;SDS011;68195;50.854;2.860;2023-03-01T16:59:55;5.95;;;3.97;;
78844;SDS011;68195;50.854;2.860;2023-03-01T17:02:21;9.30;;;4.82;;
78844;SDS011;68195;50.854;2.860;2023-03-01T17:04:54;5.45;;;4.32;;
78844;SDS011;68195;50.854;2.860;2023-03-01T17:07:20;6.60;;;4.40;;
78844;SDS011;68195;50.854;2.860;2023-03-01T17:09:47;6.85;;;4.35;;